Time;durP1;ratioP1;P1;durP2;ratioP2;P2;SDS_P1;SDS_P2;PMS_P1;PMS_P2;Temp;Humidity;BMP_temperature;BMP_pressure;BME280_temperature;BME280_humidity;BME280_pressure;Samples;Min_cycle;Max_cycle;Signal;HPM_P1;HPM_P2
2022/12/11 00:00:26;;;;;;;64.55;25.67;;;;;;;-1.54;100.00;95389.56;4997586;28;20478;-86
2022/12/11 00:02:52;;;;;;;65.15;25.90;;;;;;;-1.49;100.00;95389.59;5004529;28;20046;-86
2022/12/11 00:05:20;;;;;;;71.07;26.77;;;;;;;-1.47;100.00;95395.44;5003725;28;20034;-84
2022/12/11 00:07:47;;;;;;;67.53;24.50;;;;;;;-1.48;100.00;95396.50;4997207;28;20054;-86
2022/12/11 00:10:13;;;;;;;65.32;27.02;;;;;;;-1.42;100.00;95394.66;4991504;28;20042;-83
2022/12/11 00:12:40;;;;;;;57.25;24.08;;;;;;;-1.46;100.00;95399.75;4998903;28;20140;-86
2022/12/11 00:15:07;;;;;;;59.95;23.20;;;;;;;-1.41;100.00;95397.06;5002322;28;20424;-89
2022/12/11 00:17:34;;;;;;;67.53;26.15;;;;;;;-1.51;100.00;95402.41;5005502;28;20042;-91
2022/12/11 00:20:01;;;;;;;61.28;24.77;;;;;;;-1.55;100.00;95405.88;4996888;28;20045;-87
2022/12/11 00:22:29;;;;;;;66.72;25.73;;;;;;;-1.56;100.00;95406.94;5004772;28;20050;-88
2022/12/11 00:24:56;;;;;;;69.05;24.98;;;;;;;-1.49;100.00;95394.91;4996721;28;20076;-86
2022/12/11 00:27:23;;;;;;;67.93;25.20;;;;;;;-1.59;100.00;95401.03;4996820;28;20042;-86
2022/12/11 00:29:50;;;;;;;61.13;23.88;;;;;;;-1.45;100.00;95404.00;4999963;28;20049;-86
2022/12/11 00:32:16;;;;;;;53.33;23.42;;;;;;;-1.41;100.00;95405.09;5001627;28;20053;-87
2022/12/11 00:34:43;;;;;;;48.72;22.08;;;;;;;-1.38;100.00;95404.53;5001857;28;20034;-84
2022/12/11 00:37:10;;;;;;;49.95;21.38;;;;;;;-1.49;100.00;95399.47;4997024;28;20046;-86
2022/12/11 00:39:38;;;;;;;50.25;22.08;;;;;;;-1.41;100.00;95402.41;4997273;28;20053;-84
2022/12/11 00:42:05;;;;;;;56.35;22.40;;;;;;;-1.47;100.00;95392.78;5003148;28;20050;-88
2022/12/11 00:44:32;;;;;;;58.67;23.17;;;;;;;-1.76;100.00;95394.34;4998871;28;20046;-87
2022/12/11 00:46:58;;;;;;;56.35;21.65;;;;;;;-1.65;100.00;95406.63;5004615;28;20050;-91
2022/12/11 00:49:25;;;;;;;63.13;23.13;;;;;;;-1.77;100.00;95408.75;4996564;28;20386;-88
2022/12/11 00:51:51;;;;;;;46.58;21.00;;;;;;;-1.68;100.00;95409.81;4997225;28;20073;-87
2022/12/11 00:54:18;;;;;;;42.55;19.85;;;;;;;-1.58;100.00;95412.50;4996021;28;20050;-88
2022/12/11 00:56:47;;;;;;;47.60;23.33;;;;;;;-1.85;100.00;95410.06;5004460;28;20058;-87
2022/12/11 00:59:13;;;;;;;53.55;21.55;;;;;;;-1.76;100.00;95411.16;5002756;28;20037;-86
2022/12/11 01:01:40;;;;;;;69.15;24.80;;;;;;;-1.77;100.00;95420.22;4997438;28;20078;-87
2022/12/11 01:04:06;;;;;;;62.55;22.63;;;;;;;-1.71;100.00;95419.19;4996979;28;20537;-81
2022/12/11 01:06:33;;;;;;;59.83;22.85;;;;;;;-1.68;100.00;95418.63;5011287;28;20061;-83
2022/12/11 01:11:44;;;;;;;66.22;23.35;;;;;;;-1.71;100.00;95413.84;4996444;28;20061;-81
2022/12/11 01:14:12;;;;;;;57.20;23.23;;;;;;;-1.68;100.00;95425.84;5000394;28;20042;-82
2022/12/11 01:16:39;;;;;;;67.57;22.98;;;;;;;-1.74;100.00;95430.38;5002866;28;20046;-87
2022/12/11 01:19:06;;;;;;;52.00;20.02;;;;;;;-1.69;100.00;95424.25;4995690;28;20422;-78
2022/12/11 01:21:32;;;;;;;63.85;22.40;;;;;;;-1.62;100.00;95427.44;4995308;28;20058;-82
2022/12/11 01:23:59;;;;;;;60.35;23.08;;;;;;;-1.73;100.00;95431.16;5006363;28;20058;-83
2022/12/11 01:26:25;;;;;;;64.50;23.50;;;;;;;-1.60;100.00;95425.34;5003113;28;20069;-82
2022/12/11 01:28:52;;;;;;;48.88;20.60;;;;;;;-1.56;100.00;95425.63;4994559;28;20054;-82
2022/12/11 01:31:22;;;;;;;53.90;22.30;;;;;;;-1.54;100.00;95429.63;4995389;28;20517;-80
2022/12/11 01:33:48;;;;;;;49.10;20.83;;;;;;;-1.50;100.00;95425.38;4995936;28;20054;-83
2022/12/11 01:36:18;;;;;;;54.70;21.30;;;;;;;-1.78;100.00;95426.59;4996946;28;20050;-80
2022/12/11 01:38:45;;;;;;;48.33;21.58;;;;;;;-1.73;100.00;95429.28;5004738;28;20051;-83
2022/12/11 01:41:13;;;;;;;61.30;22.40;;;;;;;-1.70;100.00;95431.44;5000183;28;20045;-82
2022/12/11 01:44:00;;;;;;;50.63;21.42;;;;;;;-1.69;100.00;95437.59;5002376;28;20375;-82
2022/12/11 01:46:29;;;;;;;56.60;21.15;;;;;;;-1.75;100.00;95436.78;5002324;28;20570;-81
2022/12/11 01:48:56;;;;;;;59.75;21.60;;;;;;;-1.94;100.00;95440.97;4994711;28;20050;-82
2022/12/11 01:51:24;;;;;;;56.90;21.65;;;;;;;-1.80;100.00;95441.28;5003421;28;20136;-82
2022/12/11 01:53:57;;;;;;;57.42;21.17;;;;;;;-1.89;100.00;95446.31;4993269;28;20038;-81
2022/12/11 01:56:24;;;;;;;60.10;20.42;;;;;;;-1.82;100.00;95443.44;4993496;28;20478;-80
2022/12/11 01:58:55;;;;;;;55.55;20.10;;;;;;;-1.92;100.00;95446.88;4993407;28;20461;-81
2022/12/11 02:01:29;;;;;;;46.35;20.33;;;;;;;-2.02;100.00;95444.94;4993591;28;20039;-81
2022/12/11 02:03:57;;;;;;;54.17;20.10;;;;;;;-2.01;100.00;95449.22;4990194;28;20054;-82
2022/12/11 02:06:36;;;;;;;45.92;20.48;;;;;;;-2.09;100.00;95455.03;4993403;28;20046;-82
2022/12/11 02:09:03;;;;;;;48.55;18.90;;;;;;;-1.98;100.00;95451.38;5001761;28;20041;-83
2022/12/11 02:11:38;;;;;;;58.33;20.13;;;;;;;-2.08;100.00;95448.66;4991622;28;20421;-80
2022/12/11 02:14:09;;;;;;;51.25;20.38;;;;;;;-2.16;100.00;95449.16;4988830;28;20048;-82
2022/12/11 02:16:44;;;;;;;54.05;19.40;;;;;;;-2.08;100.00;95451.34;5012739;28;20046;-83
2022/12/11 02:19:22;;;;;;;49.95;18.52;;;;;;;-2.00;100.00;95452.69;4998621;28;20042;-80
2022/12/11 02:21:53;;;;;;;54.42;19.45;;;;;;;-2.09;100.00;95444.38;5003888;28;20053;-80
2022/12/11 02:24:32;;;;;;;46.70;17.85;;;;;;;-2.13;100.00;95444.09;4997344;28;20050;-83
2022/12/11 02:27:22;;;;;;;49.45;18.27;;;;;;;-2.14;100.00;95439.00;4993783;28;20180;-80
2022/12/11 02:29:53;;;;;;;44.63;17.65;;;;;;;-2.06;100.00;95433.19;5000236;28;20042;-81
2022/12/11 02:32:24;;;;;;;49.08;17.80;;;;;;;-1.99;100.00;95431.06;5006552;28;20125;-81
2022/12/11 02:34:57;;;;;;;50.00;18.20;;;;;;;-1.99;100.00;95431.06;4996756;28;20046;-80
2022/12/11 02:37:27;;;;;;;52.08;19.08;;;;;;;-2.09;100.00;95417.69;4992774;28;20410;-80
2022/12/11 02:39:56;;;;;;;50.95;18.48;;;;;;;-1.97;100.00;95420.16;4992142;28;20112;-82
2022/12/11 02:42:28;;;;;;;48.33;17.83;;;;;;;-1.86;100.00;95422.59;4993021;28;20050;-81
2022/12/11 02:44:59;;;;;;;50.72;17.55;;;;;;;-1.77;100.00;95417.56;4997064;28;20048;-81
2022/12/11 02:47:28;;;;;;;48.92;18.15;;;;;;;-1.77;99.73;95414.09;5004350;28;20069;-81
2022/12/11 02:49:58;;;;;;;43.17;16.90;;;;;;;-1.73;99.13;95420.50;4992544;28;20046;-80
2022/12/11 02:52:27;;;;;;;45.30;17.10;;;;;;;-1.68;99.27;95428.50;4997086;28;20053;-80
2022/12/11 02:54:56;;;;;;;51.72;18.83;;;;;;;-1.69;99.40;95421.56;4992416;28;20626;-78
2022/12/11 02:57:27;;;;;;;45.45;17.08;;;;;;;-1.72;99.08;95427.41;5000526;28;20045;-81
2022/12/11 02:59:55;;;;;;;47.78;17.67;;;;;;;-1.75;99.52;95420.75;4993741;28;20054;-79
2022/12/11 03:02:22;;;;;;;46.20;17.58;;;;;;;-1.68;99.32;95428.50;4992841;28;20057;-79
2022/12/11 03:04:49;;;;;;;56.17;17.70;;;;;;;-1.76;99.25;95426.38;5004221;28;20042;-80
2022/12/11 03:07:19;;;;;;;51.13;17.33;;;;;;;-1.80;99.35;95439.44;4997637;28;20502;-81
2022/12/11 03:09:48;;;;;;;46.88;17.00;;;;;;;-1.85;99.79;95440.22;5000479;28;20056;-80
2022/12/11 03:12:19;;;;;;;50.83;17.58;;;;;;;-1.78;100.00;95439.16;4994100;28;20039;-80
2022/12/11 03:14:46;;;;;;;54.25;18.00;;;;;;;-1.92;100.00;95445.00;4993670;28;20050;-80
2022/12/11 03:17:18;;;;;;;54.92;18.45;;;;;;;-2.11;100.00;95441.97;5000331;28;20066;-78
2022/12/11 03:19:52;;;;;;;44.10;15.00;;;;;;;-1.96;100.00;95443.91;4991991;28;20514;-79
2022/12/11 03:22:26;;;;;;;32.00;11.95;;;;;;;-1.87;100.00;95441.53;4991415;28;20046;-78
2022/12/11 03:24:59;;;;;;;40.60;11.32;;;;;;;-1.84;100.00;95441.81;4992675;28;20051;-79
2022/12/11 03:27:33;;;;;;;38.92;11.63;;;;;;;-1.92;98.93;95442.31;4996363;28;20112;-78
2022/12/11 03:30:05;;;;;;;23.27;8.55;;;;;;;-1.82;98.50;95448.78;4985418;28;20072;-81
2022/12/11 03:32:37;;;;;;;23.50;9.10;;;;;;;-1.96;97.54;95451.91;4992076;28;20671;-81
2022/12/11 03:35:08;;;;;;;34.23;11.23;;;;;;;-1.97;97.72;95455.66;4993077;28;20046;-80
2022/12/11 03:37:39;;;;;;;30.23;11.73;;;;;;;-2.06;97.53;95451.06;4992568;28;20077;-82
2022/12/11 03:40:10;;;;;;;24.75;9.85;;;;;;;-2.10;97.97;95453.44;4996744;28;20046;-79
2022/12/11 03:42:39;;;;;;;32.58;11.02;;;;;;;-2.03;97.56;95450.56;4991017;28;20050;-80
2022/12/11 03:45:07;;;;;;;27.25;11.07;;;;;;;-2.09;97.76;95452.38;4993906;28;20406;-80
2022/12/11 03:47:38;;;;;;;32.45;11.73;;;;;;;-2.23;97.97;95456.59;5001241;28;20046;-79
2022/12/11 03:50:08;;;;;;;29.10;11.40;;;;;;;-2.21;98.11;95457.13;4994995;28;20072;-80
2022/12/11 03:52:36;;;;;;;35.08;12.45;;;;;;;-2.19;98.17;95455.81;4999522;28;20110;-81
2022/12/11 03:55:05;;;;;;;29.23;11.00;;;;;;;-2.25;98.74;95456.03;5008583;28;20041;-81
2022/12/11 03:57:34;;;;;;;40.85;12.10;;;;;;;-2.19;98.88;95449.69;4999730;28;20504;-78
2022/12/11 04:00:03;;;;;;;27.50;10.90;;;;;;;-2.14;98.83;95455.84;5001351;28;20052;-81
2022/12/11 04:02:30;;;;;;;34.47;11.93;;;;;;;-2.18;99.16;95456.63;5008424;28;20072;-79
2022/12/11 04:04:58;;;;;;;42.67;13.32;;;;;;;-2.14;99.34;95461.19;5012951;28;20047;-80
2022/12/11 04:07:25;;;;;;;28.25;11.50;;;;;;;-2.06;99.17;95459.88;5004029;28;20052;-81
2022/12/11 04:09:51;;;;;;;27.48;11.40;;;;;;;-2.20;99.39;95458.72;5002513;28;20057;-82
2022/12/11 04:12:18;;;;;;;31.58;11.77;;;;;;;-2.15;99.55;95456.88;4995944;28;20054;-81
2022/12/11 04:15:02;;;;;;;30.63;11.55;;;;;;;-2.24;99.28;95455.00;4997193;28;20050;-81
2022/12/11 04:25:43;;;;;;;23.15;10.65;;;;;;;-2.22;98.50;95450.19;4996227;28;20537;-81
2022/12/11 04:28:10;;;;;;;33.75;12.50;;;;;;;-2.29;98.92;95452.31;4998501;28;20046;-80
2022/12/11 04:30:36;;;;;;;28.05;10.25;;;;;;;-2.23;98.97;95460.06;4999430;28;20051;-79
2022/12/11 04:33:04;;;;;;;29.23;11.02;;;;;;;-2.16;98.88;95454.47;5006355;28;20042;-80
2022/12/11 04:35:33;;;;;;;35.08;12.45;;;;;;;-2.34;99.57;95462.94;4998953;28;20061;-85
2022/12/11 04:38:00;;;;;;;32.55;12.88;;;;;;;-2.36;99.90;95466.63;4999278;28;20046;-84
2022/12/11 04:40:26;;;;;;;37.40;13.23;;;;;;;-2.31;99.77;95463.19;5006604;28;20054;-84
2022/12/11 04:42:53;;;;;;;39.35;14.27;;;;;;;-2.26;99.22;95459.75;5004665;28;20050;-83
2022/12/11 04:45:20;;;;;;;33.08;13.35;;;;;;;-2.38;99.44;95460.78;5003206;28;20137;-81
2022/12/11 04:47:46;;;;;;;40.17;14.65;;;;;;;-2.34;99.19;95452.28;5008412;28;20060;-87
2022/12/11 04:50:14;;;;;;;35.50;14.13;;;;;;;-2.30;98.71;95453.34;4998075;28;20052;-82
2022/12/11 04:52:43;;;;;;;38.35;14.88;;;;;;;-2.38;98.05;95452.78;5005403;28;20137;-83
2022/12/11 04:55:10;;;;;;;36.83;13.55;;;;;;;-2.31;98.02;95454.41;5015607;28;20046;-81
2022/12/11 04:57:37;;;;;;;38.95;13.48;;;;;;;-2.33;97.25;95448.53;4998250;28;20494;-82
2022/12/11 05:00:05;;;;;;;30.83;13.15;;;;;;;-2.25;97.21;95450.69;4996433;28;20049;-86
2022/12/11 05:02:34;;;;;;;31.08;12.98;;;;;;;-2.18;96.68;95448.63;4996122;28;20057;-87
2022/12/11 05:05:02;;;;;;;36.65;13.50;;;;;;;-2.23;95.74;95448.59;5003612;28;20042;-84
2022/12/11 05:07:28;;;;;;;34.80;13.52;;;;;;;-2.21;95.57;95457.13;4994721;28;20050;-82
2022/12/11 05:09:56;;;;;;;32.50;12.88;;;;;;;-2.27;95.02;95452.84;4996266;28;20049;-84
2022/12/11 05:12:23;;;;;;;37.95;12.90;;;;;;;-2.22;95.00;95458.19;4995963;28;20056;-84
2022/12/11 05:14:51;;;;;;;32.60;13.18;;;;;;;-2.19;94.71;95453.16;4999504;28;20056;-85
2022/12/11 05:17:18;;;;;;;41.63;14.43;;;;;;;-2.16;94.73;95457.16;5003365;28;20058;-86
2022/12/11 05:19:46;;;;;;;31.05;12.43;;;;;;;-2.24;94.45;95453.13;5004411;28;20633;-83
2022/12/11 05:22:13;;;;;;;31.33;12.13;;;;;;;-2.23;94.37;95452.06;4998647;28;20050;-84
2022/12/11 05:24:39;;;;;;;26.80;12.93;;;;;;;-2.51;93.94;95447.09;5011688;28;20051;-86
2022/12/11 05:27:09;;;;;;;22.08;11.73;;;;;;;-2.59;94.50;95451.06;5009497;28;20497;-83
2022/12/11 05:29:36;;;;;;;25.08;11.55;;;;;;;-2.49;94.17;95456.44;5014796;28;20502;-84
2022/12/11 05:32:03;;;;;;;22.52;11.13;;;;;;;-2.42;94.02;95457.00;5006206;28;20078;-91
2022/12/11 05:34:33;;;;;;;23.80;11.20;;;;;;;-2.36;93.53;95455.97;5000187;28;20560;-85
2022/12/11 05:37:00;;;;;;;22.50;10.88;;;;;;;-2.45;93.44;95457.53;5002817;28;20506;-84
2022/12/11 05:39:26;;;;;;;24.00;12.15;;;;;;;-2.44;93.22;95461.81;5008956;28;20050;-85
2022/12/11 05:41:53;;;;;;;20.75;10.70;;;;;;;-2.44;92.78;95453.81;5009059;28;20042;-84
2022/12/11 05:44:21;;;;;;;23.05;11.63;;;;;;;-2.39;92.59;95459.19;5009377;28;20058;-84
2022/12/11 05:46:48;;;;;;;29.02;12.85;;;;;;;-2.47;92.09;95454.31;5001461;28;20052;-87
2022/12/11 05:49:15;;;;;;;24.67;11.55;;;;;;;-2.52;91.99;95450.81;5005959;28;20050;-82
2022/12/11 05:51:42;;;;;;;32.03;12.05;;;;;;;-2.51;91.68;95455.88;4999079;28;20050;-87
2022/12/11 05:54:09;;;;;;;29.27;12.98;;;;;;;-2.54;91.76;95447.63;5011336;28;20050;-90
2022/12/11 05:56:36;;;;;;;26.83;12.48;;;;;;;-2.50;91.64;95448.72;4997195;28;20046;-83
2022/12/11 05:59:04;;;;;;;28.10;12.52;;;;;;;-2.71;92.15;95445.13;4995415;28;20042;-84
2022/12/11 06:01:35;;;;;;;32.63;12.75;;;;;;;-2.91;92.41;95443.91;5003437;28;20397;-86
2022/12/11 06:04:04;;;;;;;29.73;12.50;;;;;;;-2.87;92.96;95446.88;4998120;28;20084;-85
2022/12/11 06:06:30;;;;;;;33.55;13.13;;;;;;;-2.91;92.95;95438.56;4997506;28;20080;-83
2022/12/11 06:08:58;;;;;;;38.83;12.65;;;;;;;-2.96;92.81;95446.53;5002536;28;20062;-83
2022/12/11 06:11:27;;;;;;;34.10;12.00;;;;;;;-3.05;93.21;95442.72;4993861;28;20096;-85
2022/12/11 06:13:54;;;;;;;32.35;12.05;;;;;;;-3.03;93.19;95442.47;4994123;28;20053;-84
2022/12/11 06:16:21;;;;;;;45.97;12.70;;;;;;;-2.97;92.58;95439.59;4993779;28;20053;-83
2022/12/11 06:18:50;;;;;;;32.88;11.73;;;;;;;-3.02;92.54;95436.91;4994031;28;20161;-85
2022/12/11 06:21:19;;;;;;;37.80;12.07;;;;;;;-3.15;92.18;95442.63;4993815;28;20047;-84
2022/12/11 06:23:48;;;;;;;42.83;13.00;;;;;;;-3.06;91.81;95430.47;5001598;28;20051;-84
2022/12/11 06:26:16;;;;;;;30.65;12.00;;;;;;;-3.03;91.49;95429.94;5001102;28;20046;-86
2022/12/11 06:28:42;;;;;;;33.00;12.85;;;;;;;-2.99;91.34;95441.69;4993164;28;20056;-82
2022/12/11 06:31:09;;;;;;;25.02;11.60;;;;;;;-3.00;91.23;95442.75;4992928;28;20038;-87
2022/12/11 06:33:36;;;;;;;35.30;12.82;;;;;;;-2.97;90.80;95438.81;4993358;28;20057;-87
2022/12/11 06:36:06;;;;;;;29.75;12.23;;;;;;;-2.99;91.01;95446.22;4993199;28;20049;-84
2022/12/11 06:38:33;;;;;;;29.05;11.85;;;;;;;-2.96;91.19;95441.19;4992115;28;20054;-83
2022/12/11 06:41:03;;;;;;;28.98;12.60;;;;;;;-2.95;91.29;95442.81;4993909;28;20038;-83
2022/12/11 06:43:30;;;;;;;30.92;13.57;;;;;;;-2.89;91.18;95447.09;5000482;28;20056;-83
2022/12/11 06:45:56;;;;;;;28.75;12.80;;;;;;;-2.84;91.15;95453.53;4993306;28;20056;-85
2022/12/11 06:48:23;;;;;;;26.42;13.27;;;;;;;-2.79;91.04;95445.59;4995183;28;20498;-78
2022/12/11 06:50:49;;;;;;;25.92;12.35;;;;;;;-2.77;91.32;95448.78;4993176;28;20034;-79
2022/12/11 06:53:17;;;;;;;26.73;12.88;;;;;;;-2.71;91.32;95448.59;4992750;28;20050;-80
2022/12/11 06:55:44;;;;;;;28.48;13.20;;;;;;;-2.66;91.39;95451.28;4994077;28;20042;-79
2022/12/11 06:58:11;;;;;;;30.02;13.27;;;;;;;-2.61;91.40;95447.84;5002373;28;20043;-78
2022/12/11 07:00:38;;;;;;;35.13;12.57;;;;;;;-2.55;91.31;95446.81;4991173;28;20058;-80
2022/12/11 07:03:05;;;;;;;34.28;11.90;;;;;;;-2.49;91.35;95448.44;4996245;28;20099;-80
2022/12/11 07:05:33;;;;;;;31.60;13.50;;;;;;;-2.49;91.24;95440.44;4999193;28;20406;-78
2022/12/11 07:08:00;;;;;;;29.23;11.93;;;;;;;-2.46;91.35;95447.91;4998898;28;20042;-78
2022/12/11 07:10:32;;;;;;;31.10;12.05;;;;;;;-2.44;91.46;95450.34;4997467;28;20061;-78
2022/12/11 07:12:59;;;;;;;33.65;13.95;;;;;;;-2.45;91.26;95446.88;4996392;28;20556;-78
2022/12/11 07:15:26;;;;;;;28.55;12.95;;;;;;;-2.42;91.04;95446.34;5011010;28;20054;-79
2022/12/11 07:17:52;;;;;;;31.25;13.07;;;;;;;-2.38;90.95;95442.09;4989953;28;20047;-80
2022/12/11 07:20:19;;;;;;;33.88;13.45;;;;;;;-2.34;90.73;95452.28;4990394;28;20077;-79
2022/12/11 07:22:46;;;;;;;32.33;13.73;;;;;;;-2.30;90.94;95453.34;5007040;28;20042;-80
2022/12/11 07:25:12;;;;;;;38.30;14.88;;;;;;;-2.25;91.21;95456.03;4990287;28;20042;-80
2022/12/11 07:27:40;;;;;;;32.72;13.95;;;;;;;-2.20;91.17;95461.41;4997532;28;20604;-81
2022/12/11 07:30:09;;;;;;;27.90;12.23;;;;;;;-2.16;91.31;95470.50;4998988;28;20039;-82
2022/12/11 07:32:36;;;;;;;35.22;14.35;;;;;;;-2.15;91.07;95472.09;4992044;28;20081;-79
2022/12/11 07:35:02;;;;;;;34.42;13.93;;;;;;;-2.17;90.48;95476.88;4988983;28;20057;-79
2022/12/11 07:37:29;;;;;;;30.70;13.18;;;;;;;-2.26;89.68;95479.22;4993446;28;20058;-79
2022/12/11 07:39:55;;;;;;;30.85;13.15;;;;;;;-2.36;88.69;95469.31;4989631;28;20046;-79
2022/12/11 07:42:22;;;;;;;34.40;14.05;;;;;;;-2.27;88.26;95480.28;4989071;28;20089;-84
2022/12/11 07:44:50;;;;;;;32.42;13.73;;;;;;;-2.22;88.25;95477.66;4994725;28;20073;-82
2022/12/11 07:47:17;;;;;;;31.65;12.10;;;;;;;-2.19;88.15;95471.81;4993679;28;20046;-87
2022/12/11 07:49:43;;;;;;;35.00;13.75;;;;;;;-2.14;88.21;95479.84;4990003;28;20050;-81
2022/12/11 07:52:10;;;;;;;30.88;12.38;;;;;;;-2.09;88.54;95481.72;4989413;28;20050;-79
2022/12/11 07:54:36;;;;;;;31.17;13.73;;;;;;;-2.07;88.81;95478.81;4990165;28;20315;-81
2022/12/11 07:57:03;;;;;;;28.85;12.13;;;;;;;-2.04;88.70;95468.41;4989407;28;20051;-84
2022/12/11 07:59:30;;;;;;;30.95;13.45;;;;;;;-2.01;88.71;95467.91;4998196;28;20057;-80
2022/12/11 08:01:58;;;;;;;29.60;13.25;;;;;;;-1.98;88.61;95475.38;4991414;28;20046;-79
2022/12/11 08:04:24;;;;;;;31.08;12.82;;;;;;;-1.98;87.75;95467.38;4990924;28;20133;-80
2022/12/11 08:06:51;;;;;;;29.30;13.38;;;;;;;-1.98;87.76;95472.72;4995324;28;20065;-82
2022/12/11 08:09:21;;;;;;;28.42;13.50;;;;;;;-2.22;87.94;95476.88;5001381;28;20058;-81
2022/12/11 08:11:48;;;;;;;30.50;13.75;;;;;;;-2.07;87.79;95476.94;5004730;28;20100;-81
2022/12/11 08:14:15;;;;;;;31.52;13.13;;;;;;;-2.17;87.67;95471.56;5007110;28;20054;-78
2022/12/11 08:16:42;;;;;;;27.50;12.95;;;;;;;-2.08;87.64;95478.00;4991805;28;20057;-80
2022/12/11 08:19:11;;;;;;;34.97;13.68;;;;;;;-1.97;87.50;95478.84;4993121;28;20227;-80
2022/12/11 08:21:38;;;;;;;41.40;14.95;;;;;;;-2.00;87.66;95476.69;4992300;28;20054;-79
2022/12/11 08:24:05;;;;;;;30.92;13.23;;;;;;;-1.96;87.72;95475.91;5001526;28;20056;-80
2022/12/11 08:26:32;;;;;;;31.67;14.20;;;;;;;-2.10;87.17;95480.13;4999109;28;20057;-82
2022/12/11 08:29:00;;;;;;;34.53;14.43;;;;;;;-2.05;87.36;95477.47;4998691;28;20398;-85
2022/12/11 08:31:27;;;;;;;30.98;13.20;;;;;;;-2.02;87.28;95482.31;4990375;28;20054;-84
2022/12/11 08:33:56;;;;;;;33.45;13.45;;;;;;;-1.97;87.51;95485.00;4986542;28;20050;-79
2022/12/11 08:36:29;;;;;;;33.85;14.57;;;;;;;-1.94;87.37;95481.00;4993523;28;20050;-79
2022/12/11 08:38:56;;;;;;;32.10;13.75;;;;;;;-1.98;87.54;95480.72;4992531;28;20141;-81
2022/12/11 08:41:25;;;;;;;37.85;15.85;;;;;;;-2.08;88.12;95480.69;4992313;28;20046;-81
2022/12/11 08:43:54;;;;;;;29.10;13.35;;;;;;;-1.96;88.07;95481.25;5000573;28;20073;-82
2022/12/11 08:46:22;;;;;;;32.90;15.02;;;;;;;-2.05;88.00;95476.66;5000251;28;20058;-84
2022/12/11 08:48:50;;;;;;;32.22;15.25;;;;;;;-2.15;88.55;95482.75;5000576;28;20050;-82
2022/12/11 08:51:21;;;;;;;33.70;14.73;;;;;;;-2.07;88.94;95487.59;4992301;28;20054;-82
2022/12/11 08:53:50;;;;;;;32.92;15.40;;;;;;;-1.95;88.94;95488.19;5002804;28;20119;-83
2022/12/11 08:56:19;;;;;;;32.50;14.57;;;;;;;-1.88;88.95;95487.94;4993939;28;20050;-80
2022/12/11 08:58:47;;;;;;;36.97;16.05;;;;;;;-1.78;88.99;95487.19;4999343;28;20047;-82
2022/12/11 09:01:16;;;;;;;34.53;15.23;;;;;;;-1.74;88.97;95493.63;5006593;28;20137;-82
2022/12/11 09:03:43;;;;;;;35.50;16.02;;;;;;;-1.89;89.19;95495.16;4992909;28;20076;-82
2022/12/11 09:06:13;;;;;;;36.15;15.52;;;;;;;-2.15;90.75;95488.09;4991668;28;20046;-84
2022/12/11 09:08:42;;;;;;;38.65;16.85;;;;;;;-2.30;91.70;95493.34;4993118;28;20137;-80
2022/12/11 09:11:12;;;;;;;31.58;14.13;;;;;;;-2.24;92.32;95484.31;4997363;28;20616;-81
2022/12/11 09:13:40;;;;;;;40.17;16.30;;;;;;;-2.22;92.87;95476.88;5001383;28;20054;-80
2022/12/11 09:16:09;;;;;;;43.25;18.20;;;;;;;-1.98;92.45;95482.59;4996276;28;21607;-83
2022/12/11 09:18:35;;;;;;;34.13;15.55;;;;;;;-2.02;92.08;95482.31;4991006;28;20084;-79
2022/12/11 09:21:04;;;;;;;38.78;16.70;;;;;;;-1.85;92.33;95482.09;4991439;28;20043;-79
2022/12/11 09:23:30;;;;;;;38.60;15.98;;;;;;;-1.84;92.42;95483.69;4999686;28;20057;-80
2022/12/11 09:25:57;;;;;;;33.75;16.67;;;;;;;-1.78;91.79;95484.53;5001892;28;20057;-81
2022/12/11 09:28:25;;;;;;;33.38;15.77;;;;;;;-2.01;92.18;95486.56;4991974;28;20505;-84
2022/12/11 09:30:52;;;;;;;34.67;15.68;;;;;;;-2.08;92.25;95488.69;4989817;28;20497;-83
2022/12/11 09:33:19;;;;;;;33.13;15.50;;;;;;;-1.88;92.08;95483.44;4990856;28;20670;-79
2022/12/11 09:35:45;;;;;;;40.10;17.33;;;;;;;-2.09;92.18;95473.72;4990884;28;20046;-80
2022/12/11 09:38:14;;;;;;;34.17;15.48;;;;;;;-2.05;92.33;95474.81;4990939;28;20409;-85
2022/12/11 09:40:42;;;;;;;36.30;15.27;;;;;;;-1.97;92.09;95466.31;4992458;28;20512;-80
2022/12/11 09:43:31;;;;;;;40.05;16.48;;;;;;;-1.96;91.74;95465.25;4991602;28;20051;-81
2022/12/11 09:46:04;;;;;;;46.05;17.15;;;;;;;-1.83;91.37;95469.28;4983299;28;20494;-81
2022/12/11 09:48:32;;;;;;;;;;;;;;;-1.75;91.17;95470.66;4988266;28;20613;-82
2022/12/11 09:51:05;;;;;;;42.15;15.85;;;;;;;-1.60;91.64;95465.38;4998612;28;19930;-80
2022/12/11 09:53:35;;;;;;;39.72;16.08;;;;;;;-1.61;90.92;95461.13;4991711;28;20050;-78
2022/12/11 09:56:14;;;;;;;38.50;15.80;;;;;;;-1.43;90.99;95467.81;4997283;28;20678;-82
2022/12/11 09:58:57;;;;;;;44.13;16.35;;;;;;;-1.33;89.73;95463.31;4992402;28;20076;-77
2022/12/11 10:01:36;;;;;;;39.75;15.75;;;;;;;-1.59;89.36;95464.31;4991153;28;20054;-79
2022/12/11 10:04:18;;;;;;;38.08;16.08;;;;;;;-1.76;90.61;95455.72;4991817;28;20545;-83
2022/12/11 10:06:52;;;;;;;37.13;15.73;;;;;;;-1.77;90.60;95456.78;4999745;28;20050;-85
2022/12/11 10:09:26;;;;;;;40.45;16.25;;;;;;;-1.76;91.19;95447.72;4991574;28;20514;-80
2022/12/11 10:12:01;;;;;;;35.95;16.00;;;;;;;-1.74;91.21;95450.91;4987426;28;20048;-80
2022/12/11 10:14:41;;;;;;;40.97;17.55;;;;;;;-1.77;91.34;95448.78;5011191;28;20065;-80
2022/12/11 10:17:15;;;;;;;39.03;16.85;;;;;;;-1.63;91.29;95441.88;4997196;28;20050;-81
2022/12/11 10:19:42;;;;;;;37.40;16.83;;;;;;;-1.87;91.98;95442.34;5007332;28;20056;-80
2022/12/11 10:22:16;;;;;;;68.95;25.60;;;;;;;-1.78;91.78;95445.28;4998431;28;20046;-81
2022/12/11 10:24:49;;;;;;;44.42;17.63;;;;;;;-1.78;91.12;95441.81;4990386;28;20052;-83
2022/12/11 10:27:20;;;;;;;42.60;16.55;;;;;;;-1.69;91.11;95437.59;4990761;28;20053;-79
2022/12/11 10:29:47;;;;;;;38.00;16.80;;;;;;;-1.80;90.36;95441.28;4991821;28;20096;-79
2022/12/11 10:32:23;;;;;;;37.13;15.82;;;;;;;-1.76;90.92;95427.16;4991861;28;20145;-81
2022/12/11 10:34:57;;;;;;;41.10;17.10;;;;;;;-1.64;90.98;95429.59;5008961;28;20101;-87
2022/12/11 10:37:23;;;;;;;31.60;14.23;;;;;;;-1.72;90.00;95427.41;4994080;28;20064;-82
2022/12/11 10:39:50;;;;;;;31.70;14.68;;;;;;;-1.95;89.23;95431.38;4993566;28;20084;-86
2022/12/11 10:42:19;;;;;;;38.83;16.38;;;;;;;-2.08;89.70;95430.00;5000645;28;20501;-84
2022/12/11 10:44:59;;;;;;;33.67;14.52;;;;;;;-2.14;88.89;95418.50;4993188;28;20057;-89
2022/12/11 10:47:28;;;;;;;37.58;16.33;;;;;;;-2.16;89.28;95422.47;4990945;28;20054;-86
2022/12/11 10:49:58;;;;;;;36.28;16.55;;;;;;;-2.29;89.91;95422.97;4989838;28;20050;-84
2022/12/11 10:52:27;;;;;;;39.65;15.80;;;;;;;-2.21;91.44;95425.91;4991623;28;20070;-85
2022/12/11 10:55:00;;;;;;;40.85;16.10;;;;;;;-1.98;91.59;95419.38;4990150;28;20061;-82
2022/12/11 10:57:29;;;;;;;34.63;15.40;;;;;;;-1.88;91.34;95414.06;4990749;28;20046;-86
2022/12/11 10:59:57;;;;;;;34.20;14.98;;;;;;;-1.90;90.21;95405.50;4994022;28;20037;-84
2022/12/11 11:02:28;;;;;;;35.58;14.02;;;;;;;-1.95;89.42;95407.34;4994162;28;20085;-83
2022/12/11 11:04:57;;;;;;;43.78;16.55;;;;;;;-1.85;90.06;95402.84;4991616;28;20421;-78
2022/12/11 11:07:25;;;;;;;38.28;15.60;;;;;;;-1.72;89.27;95401.56;4986818;28;20050;-83
2022/12/11 11:10:13;;;;;;;34.88;14.30;;;;;;;-1.76;87.33;95392.47;4984853;28;20073;-82
2022/12/11 11:12:42;;;;;;;39.60;14.05;;;;;;;-1.97;86.72;95394.28;4989659;28;20053;-81
2022/12/11 11:15:13;;;;;;;36.45;13.30;;;;;;;-2.16;87.23;95385.13;4999203;28;20066;-79
2022/12/11 11:17:45;;;;;;;37.45;14.70;;;;;;;-2.22;87.81;95386.19;4997407;28;20104;-79
2022/12/11 11:20:15;;;;;;;33.45;14.32;;;;;;;-2.23;89.45;95379.25;4981163;28;20047;-78
2022/12/11 11:22:46;;;;;;;36.83;14.98;;;;;;;-2.31;89.30;95382.41;4990272;28;20050;-84
2022/12/11 11:25:18;;;;;;;38.33;15.50;;;;;;;-2.22;88.81;95378.97;4996156;28;20050;-84
2022/12/11 11:27:49;;;;;;;33.28;14.48;;;;;;;-2.34;88.95;95380.28;4989994;28;20042;-84
2022/12/11 11:30:20;;;;;;;33.17;13.70;;;;;;;-2.39;90.26;95371.19;4990577;28;20046;-83
2022/12/11 11:32:51;;;;;;;38.25;14.32;;;;;;;-2.58;90.20;95366.56;4989579;28;20058;-81